Stella, NC (28582)

10:14 PM EST on December 07, 2016 (GMT -0500)
Hammocks Beach | | Change Station

Elev 16 ft 34.69 °N, 77.14 °W | Updated 5 seconds ago

Clear
Clear
44.0 °F
Feels Like 44 °F
N
0.0
Wind Variable Wind from North

Today
High -- | Low -- °F
--% Chance of Precip.
Yesterday
High -- | Low -- °F
Precip. -- in
Pressure 30.09 in
Visibility 10.0 miles
Clouds Clear
Windchill 44 °F
Dew Point 40 °F
Humidity 88%
Rainfall Not available.
Snow Depth Not available.
7:03 AM 4:57 PM
First Quarter, 58% visible
METAR KNCA 080256Z AUTO 00000KT 10SM CLR 07/07 A3008 RMK AO2 SLP189 T00670067 51002
Pressure 30.09 in
Visibility 10.0 miles
Clouds Clear
Windchill 44 °F
Dew Point 40 °F
Humidity 88%
Rainfall Not available.
Snow Depth Not available.
7:03 AM 4:57 PM
First Quarter, 58% visible
METAR KNCA 080256Z AUTO 00000KT 10SM CLR 07/07 A3008 RMK AO2 SLP189 T00670067 51002

10-Day Weather Forecast

Almanac

Astronomy

Dec. 07, 2016 Rise Set
Actual Time
Civil Twilight
Nautical Twilight
Astronomical Twilight
Moon
Length of Visible Light
Length of Day
Tomorrow will be .
, % of the Moon is Illuminated

Today's Extremes

State Highs State Lows

Community

WunderPhotos

Upload Photos

1,956,259 photos uploaded!

WunderBlog® & News

Nearby

Air Quality

  Air Quality AQ Index Pollutant
Not available.

Snow Depth

Station Depth Elevation

Earthquake Activity

City Distance Mag. Time & Date
Minimum magnitude displayed is 2.5.

Coastal Water Temperatures

Place Temperature

Stations

Nearby Weather Stations

Station Location Temp. Windchill Dew Point Humidity Wind Precip. Elev Updated Type
                   

Watches & Warnings

There are currently no watches in effect.